createdAt,value
2017-06-23T00:01:52.286Z,67.90
2017-06-23T00:04:20.579Z,67.60
2017-06-23T00:06:48.849Z,67.70
2017-06-23T00:09:17.149Z,67.00
2017-06-23T00:11:45.416Z,67.40
2017-06-23T00:14:13.712Z,67.30
2017-06-23T00:16:41.976Z,68.30
2017-06-23T00:19:10.271Z,66.70
2017-06-23T00:21:38.536Z,66.50
2017-06-23T00:24:06.855Z,67.00
2017-06-23T00:26:35.120Z,67.90
2017-06-23T00:29:03.386Z,67.00
2017-06-23T00:31:31.687Z,67.30
2017-06-23T00:33:59.957Z,67.50
2017-06-23T00:36:28.254Z,67.30
2017-06-23T00:38:56.524Z,66.60
2017-06-23T00:41:24.816Z,67.60
2017-06-23T00:43:53.099Z,67.10
2017-06-23T00:46:21.395Z,66.70
2017-06-23T00:48:49.663Z,67.10
2017-06-23T00:51:17.927Z,67.40
2017-06-23T00:53:46.232Z,67.80
2017-06-23T00:56:14.499Z,67.50
2017-06-23T00:58:42.806Z,66.50
2017-06-23T01:01:11.097Z,66.50
2017-06-23T01:03:39.395Z,67.50
2017-06-23T01:06:07.660Z,67.20
2017-06-23T01:08:35.972Z,67.20
2017-06-23T01:11:04.240Z,67.40
2017-06-23T01:13:32.536Z,68.70
2017-06-23T01:16:00.069Z,68.80
2017-06-23T01:18:28.328Z,67.90
2017-06-23T01:20:56.631Z,68.30
2017-06-23T01:23:24.901Z,68.60
2017-06-23T01:25:53.201Z,69.30
2017-06-23T01:28:21.464Z,68.20
2017-06-23T01:30:49.769Z,68.50
2017-06-23T01:33:18.071Z,68.90
2017-06-23T01:35:46.344Z,69.50
2017-06-23T01:38:14.650Z,70.60
2017-06-23T01:40:42.915Z,71.20
2017-06-23T01:43:11.205Z,69.80
2017-06-23T01:45:39.475Z,69.20
2017-06-23T01:48:07.771Z,70.80
2017-06-23T01:50:36.046Z,70.60
2017-06-23T01:53:04.348Z,70.40
2017-06-23T01:55:32.627Z,70.00
2017-06-23T01:58:00.935Z,70.50
2017-06-23T02:00:29.241Z,70.10
2017-06-23T02:02:57.510Z,70.10
2017-06-23T02:05:25.814Z,70.50
2017-06-23T02:07:54.081Z,70.40
2017-06-23T02:10:22.391Z,69.50
2017-06-23T02:12:50.667Z,70.00
2017-06-23T02:15:18.976Z,70.40
2017-06-23T02:17:47.280Z,70.70
2017-06-23T02:20:15.558Z,70.60
2017-06-23T02:22:43.864Z,70.30
2017-06-23T02:25:12.140Z,70.90
2017-06-23T02:27:40.448Z,71.20
2017-06-23T02:30:08.728Z,71.80
2017-06-23T02:32:37.034Z,72.10
2017-06-23T02:35:05.379Z,72.60
2017-06-23T02:37:33.652Z,71.80
2017-06-23T02:40:01.926Z,71.70
2017-06-23T02:42:30.238Z,71.40
2017-06-23T02:44:58.550Z,71.70
2017-06-23T02:47:26.814Z,70.80
2017-06-23T02:49:55.143Z,70.80
2017-06-23T02:52:23.412Z,70.10
2017-06-23T02:54:51.694Z,71.30
2017-06-23T02:57:20.038Z,69.70
2017-06-23T02:59:48.316Z,69.50
2017-06-23T03:02:16.588Z,69.80
2017-06-23T03:04:44.891Z,71.20
2017-06-23T03:07:12.408Z,72.20
2017-06-23T03:09:40.714Z,69.80
2017-06-23T03:12:09.003Z,70.00
2017-06-23T03:14:37.275Z,70.40
2017-06-23T03:17:05.580Z,71.70
2017-06-23T03:19:33.844Z,72.30
2017-06-23T03:22:02.110Z,71.60
2017-06-23T03:24:30.412Z,71.80
2017-06-23T03:26:58.720Z,71.00
2017-06-23T03:29:26.989Z,70.80
2017-06-23T03:31:55.287Z,71.20
2017-06-23T03:34:23.583Z,72.90
2017-06-23T03:36:51.840Z,71.10
2017-06-23T03:39:20.136Z,71.90
2017-06-23T03:41:48.407Z,71.70
2017-06-23T03:44:16.714Z,70.80
2017-06-23T03:46:44.995Z,71.70
2017-06-23T03:49:13.268Z,71.70
2017-06-23T03:51:41.579Z,71.40
2017-06-23T03:54:09.857Z,71.70
2017-06-23T03:56:38.163Z,71.20
2017-06-23T03:59:06.432Z,71.30
2017-06-23T04:01:34.724Z,71.40
2017-06-23T04:04:02.993Z,71.40
2017-06-23T04:06:31.297Z,71.70
2017-06-23T04:08:59.564Z,72.70
2017-06-23T04:11:27.853Z,72.80
2017-06-23T04:13:56.152Z,73.20
2017-06-23T04:16:24.437Z,73.20
2017-06-23T04:18:52.744Z,73.30
2017-06-23T04:21:21.014Z,73.50
2017-06-23T04:23:49.276Z,72.00
2017-06-23T04:26:17.586Z,71.70
2017-06-23T04:28:45.915Z,71.60
2017-06-23T04:31:14.190Z,71.80
2017-06-23T04:33:41.704Z,71.80
2017-06-23T04:36:10.026Z,71.50
2017-06-23T04:38:38.288Z,71.60
2017-06-23T04:41:06.561Z,71.60
2017-06-23T04:43:34.880Z,71.70
2017-06-23T04:46:03.144Z,72.20
2017-06-23T04:48:30.688Z,72.20
2017-06-23T04:50:58.969Z,71.80
2017-06-23T04:53:27.240Z,71.30
2017-06-23T04:55:55.545Z,71.70
2017-06-23T04:58:23.808Z,72.00
2017-06-23T05:00:51.353Z,72.00
2017-06-23T05:03:19.617Z,72.00
2017-06-23T05:05:47.888Z,71.70
2017-06-23T05:08:16.189Z,71.70
2017-06-23T05:10:44.451Z,71.00
2017-06-23T05:13:12.743Z,70.90
2017-06-23T05:15:41.077Z,71.60
2017-06-23T05:18:09.349Z,71.30
2017-06-23T05:20:37.620Z,71.30
2017-06-23T05:23:05.916Z,71.30
2017-06-23T05:25:34.189Z,72.00
2017-06-23T05:28:02.501Z,71.20
2017-06-23T05:30:30.768Z,71.20
2017-06-23T05:32:59.089Z,71.40
2017-06-23T05:35:27.357Z,71.50
2017-06-23T05:37:55.629Z,73.10
2017-06-23T05:40:23.931Z,72.50
2017-06-23T05:42:52.197Z,72.00
2017-06-23T05:45:20.457Z,72.20
2017-06-23T05:47:48.764Z,71.80
2017-06-23T05:50:17.036Z,72.20
2017-06-23T05:52:45.312Z,70.50
2017-06-23T05:55:13.620Z,71.20
2017-06-23T05:57:41.884Z,70.00
2017-06-23T06:00:10.201Z,70.50
2017-06-23T06:02:38.482Z,70.10
2017-06-23T06:05:06.746Z,70.60
2017-06-23T06:07:35.041Z,70.60
2017-06-23T06:10:03.326Z,70.80
2017-06-23T06:12:31.639Z,70.50
2017-06-23T06:14:59.962Z,70.20
2017-06-23T06:17:28.284Z,70.80
2017-06-23T06:19:56.568Z,70.80
2017-06-23T06:22:24.844Z,70.70
2017-06-23T06:24:53.168Z,69.80
2017-06-23T06:27:21.450Z,69.90
2017-06-23T06:29:49.788Z,70.80
2017-06-23T06:32:18.100Z,71.00
2017-06-23T06:34:46.381Z,72.00
2017-06-23T06:37:14.740Z,70.50
2017-06-23T06:39:43.031Z,70.90
2017-06-23T06:42:11.310Z,71.20
2017-06-23T06:44:39.613Z,71.20
2017-06-23T06:47:07.892Z,70.40
2017-06-23T06:49:36.209Z,70.10
2017-06-23T06:52:04.490Z,69.40
2017-06-23T06:54:32.796Z,69.30
2017-06-23T06:57:01.098Z,68.90
2017-06-23T06:59:29.422Z,68.20
2017-06-23T07:01:57.702Z,67.90
2017-06-23T07:04:25.981Z,67.40
2017-06-23T07:06:54.298Z,68.30
2017-06-23T07:09:22.579Z,68.30
2017-06-23T07:11:50.844Z,67.70
2017-06-23T07:14:19.153Z,68.10
2017-06-23T07:16:47.425Z,68.30
2017-06-23T07:19:15.753Z,67.90
2017-06-23T07:21:44.024Z,67.40
2017-06-23T07:24:12.346Z,67.70
2017-06-23T07:26:40.646Z,68.50
2017-06-23T07:29:08.922Z,68.60
2017-06-23T07:31:37.224Z,67.40
2017-06-23T07:34:05.492Z,67.20
2017-06-23T07:36:33.794Z,68.10
2017-06-23T07:39:02.068Z,67.20
2017-06-23T07:41:30.380Z,67.50
2017-06-23T07:43:58.673Z,67.20
2017-06-23T07:46:26.946Z,66.70
2017-06-23T07:48:55.248Z,65.50
2017-06-23T07:51:23.518Z,65.80
2017-06-23T07:53:51.844Z,64.50
2017-06-23T07:56:20.123Z,64.00
2017-06-23T07:58:48.389Z,64.10
2017-06-23T08:01:16.679Z,64.90
2017-06-23T08:03:44.963Z,64.80
2017-06-23T08:06:13.257Z,65.20
2017-06-23T08:08:41.537Z,65.20
2017-06-23T08:11:09.850Z,65.20
2017-06-23T08:13:38.133Z,64.40
2017-06-23T08:16:06.404Z,64.70
2017-06-23T08:18:34.714Z,64.10
2017-06-23T08:21:02.981Z,63.90
2017-06-23T08:23:31.282Z,64.20
2017-06-23T08:25:59.545Z,63.20
2017-06-23T08:28:27.851Z,62.40
2017-06-23T08:30:56.125Z,61.30
2017-06-23T08:33:24.395Z,62.20
2017-06-23T08:35:52.737Z,62.00
2017-06-23T08:38:21.009Z,60.80
2017-06-23T08:40:49.340Z,61.00
2017-06-23T08:43:17.616Z,60.90
2017-06-23T08:45:45.888Z,59.40
2017-06-23T08:48:14.189Z,59.40
2017-06-23T08:50:42.494Z,59.80
2017-06-23T08:53:10.802Z,59.80
2017-06-23T08:55:39.071Z,58.60
2017-06-23T08:58:07.372Z,59.00
2017-06-23T09:00:35.645Z,59.80
2017-06-23T09:03:03.963Z,59.50
2017-06-23T09:05:32.242Z,59.40
2017-06-23T09:08:00.516Z,59.40
2017-06-23T09:10:28.817Z,59.90
2017-06-23T09:12:57.087Z,59.80
2017-06-23T09:15:25.390Z,61.60
2017-06-23T09:17:53.705Z,60.80
2017-06-23T09:20:22.008Z,60.90
2017-06-23T09:22:50.281Z,59.30
2017-06-23T09:25:18.588Z,59.10
2017-06-23T09:27:46.908Z,59.10
2017-06-23T09:30:15.205Z,59.40
2017-06-23T09:32:43.469Z,58.60
2017-06-23T09:35:11.770Z,58.70
2017-06-23T09:37:40.080Z,58.20
2017-06-23T09:40:08.388Z,57.80
2017-06-23T09:42:36.698Z,58.10
2017-06-23T09:45:04.985Z,58.50
2017-06-23T09:47:33.264Z,58.70
2017-06-23T09:50:01.555Z,58.20
2017-06-23T09:52:29.831Z,57.80
2017-06-23T09:54:58.144Z,57.80
2017-06-23T09:57:26.417Z,58.60
2017-06-23T09:59:54.726Z,58.30
2017-06-23T10:02:23.024Z,57.40
2017-06-23T10:04:51.296Z,57.70
2017-06-23T10:07:19.588Z,58.20
2017-06-23T10:09:47.869Z,58.20
2017-06-23T10:12:16.168Z,58.60
2017-06-23T10:14:44.478Z,59.00
2017-06-23T10:17:12.756Z,58.00
2017-06-23T10:19:41.071Z,58.20
2017-06-23T10:22:09.345Z,58.60
2017-06-23T10:24:37.661Z,58.40
2017-06-23T10:27:05.935Z,57.90
2017-06-23T10:29:34.248Z,58.60
2017-06-23T10:32:02.517Z,56.60
2017-06-23T10:34:30.787Z,57.10
2017-06-23T10:36:59.080Z,58.20
2017-06-23T10:39:27.351Z,57.00
2017-06-23T10:41:55.659Z,56.70
2017-06-23T10:44:23.935Z,55.30
2017-06-23T10:46:52.271Z,55.00
2017-06-23T10:49:20.548Z,54.80
2017-06-23T10:51:48.820Z,55.00
2017-06-23T10:54:17.120Z,55.10
2017-06-23T10:56:45.423Z,54.20
2017-06-23T10:59:13.705Z,54.20
2017-06-23T11:01:42.006Z,54.80
2017-06-23T11:04:10.276Z,54.60
2017-06-23T11:06:38.607Z,54.50
2017-06-23T11:09:06.875Z,54.20
2017-06-23T11:11:35.196Z,55.20
2017-06-23T11:14:03.496Z,53.20
2017-06-23T11:16:31.772Z,52.60
2017-06-23T11:19:00.051Z,53.90
2017-06-23T11:21:28.352Z,52.80
2017-06-23T11:23:56.630Z,52.80
2017-06-23T11:26:24.893Z,53.30
2017-06-23T11:28:52.416Z,52.80
2017-06-23T11:31:20.692Z,52.40
2017-06-23T11:33:48.978Z,53.00
2017-06-23T11:36:17.243Z,52.50
2017-06-23T11:38:45.547Z,52.20
2017-06-23T11:41:13.813Z,49.50
2017-06-23T11:43:42.080Z,49.50
2017-06-23T11:46:10.384Z,49.40
2017-06-23T11:48:38.657Z,48.90
2017-06-23T11:51:06.961Z,48.60
2017-06-23T11:53:35.240Z,49.40
2017-06-23T11:56:02.767Z,49.40
2017-06-23T11:58:31.032Z,50.20
2017-06-23T12:00:59.501Z,49.80
2017-06-23T12:03:27.774Z,50.00
2017-06-23T12:05:56.055Z,49.80
2017-06-23T12:08:24.360Z,48.40
2017-06-23T12:10:52.645Z,49.10
2017-06-23T12:13:20.936Z,49.40
2017-06-23T12:15:49.210Z,49.80
2017-06-23T12:18:16.739Z,49.80
2017-06-23T12:20:45.046Z,48.60
2017-06-23T12:23:13.350Z,49.30
2017-06-23T12:25:41.638Z,49.10
2017-06-23T12:28:09.912Z,50.00
2017-06-23T12:30:38.201Z,49.30
2017-06-23T12:33:06.461Z,47.50
2017-06-23T12:35:34.748Z,48.10
2017-06-23T12:38:03.024Z,47.70
2017-06-23T12:40:31.333Z,48.30
2017-06-23T12:42:59.601Z,48.90
2017-06-23T12:45:27.886Z,47.30
2017-06-23T12:47:56.192Z,47.30
2017-06-23T12:50:24.480Z,47.00
2017-06-23T12:52:52.777Z,46.00
2017-06-23T12:55:21.050Z,45.90
2017-06-23T12:57:49.352Z,44.30
2017-06-23T13:00:17.613Z,45.00
2017-06-23T13:02:45.920Z,45.60
2017-06-23T13:05:14.187Z,46.60
2017-06-23T13:07:42.459Z,46.60
2017-06-23T13:10:10.775Z,46.50
2017-06-23T13:12:39.048Z,46.90
2017-06-23T13:15:07.344Z,47.40
2017-06-23T13:17:35.640Z,46.10
2017-06-23T13:20:03.909Z,47.30
2017-06-23T13:22:32.224Z,46.30
2017-06-23T13:25:00.488Z,45.90
2017-06-23T13:27:28.757Z,46.20
2017-06-23T13:29:57.040Z,45.40
2017-06-23T13:32:25.329Z,46.80
2017-06-23T13:34:53.599Z,47.20
2017-06-23T13:37:21.892Z,47.20
2017-06-23T13:39:50.215Z,47.10
2017-06-23T13:42:18.484Z,45.80
2017-06-23T13:44:46.773Z,45.30
2017-06-23T13:47:15.086Z,45.10
2017-06-23T13:49:43.348Z,45.60
2017-06-23T13:52:11.645Z,45.90
2017-06-23T13:54:39.912Z,45.40
2017-06-23T13:57:08.226Z,46.00
2017-06-23T13:59:36.484Z,47.10
2017-06-23T14:02:04.789Z,46.50
2017-06-23T14:04:33.060Z,46.70
2017-06-23T14:07:01.404Z,45.00
2017-06-23T14:09:29.680Z,44.70
2017-06-23T14:11:57.950Z,43.20
2017-06-23T14:14:28.235Z,43.00
2017-06-23T14:16:56.521Z,45.50
2017-06-23T14:19:24.813Z,44.00
2017-06-23T14:21:53.106Z,44.10
2017-06-23T14:24:21.415Z,45.50
2017-06-23T14:26:49.694Z,46.30
2017-06-23T14:29:18.024Z,45.30
2017-06-23T14:31:46.292Z,45.10
2017-06-23T14:34:14.563Z,45.10
2017-06-23T14:36:42.877Z,44.50
2017-06-23T14:39:11.143Z,44.10
2017-06-23T14:41:39.406Z,43.40
2017-06-23T14:44:07.717Z,43.80
2017-06-23T14:46:35.983Z,44.60
2017-06-23T14:49:04.306Z,43.40
2017-06-23T14:51:32.573Z,44.00
2017-06-23T14:54:00.838Z,44.40
2017-06-23T14:56:29.263Z,45.20
2017-06-23T14:58:57.534Z,45.20
2017-06-23T15:01:25.830Z,45.10
2017-06-23T15:03:55.237Z,43.70
2017-06-23T15:06:24.143Z,44.90
2017-06-23T15:08:52.429Z,45.90
2017-06-23T15:11:20.741Z,44.80
2017-06-23T15:13:49.003Z,44.20
2017-06-23T15:16:17.264Z,42.90
2017-06-23T15:18:45.554Z,43.20
2017-06-23T15:21:13.816Z,43.00
2017-06-23T15:23:42.116Z,43.70
2017-06-23T15:26:10.442Z,43.70
2017-06-23T15:28:38.707Z,43.00
2017-06-23T15:31:06.972Z,43.00
2017-06-23T15:33:35.261Z,43.10
2017-06-23T15:36:02.788Z,43.00
2017-06-23T15:38:31.085Z,42.90
2017-06-23T15:40:59.382Z,43.10
2017-06-23T15:43:27.684Z,42.70
2017-06-23T15:45:55.991Z,42.60
2017-06-23T15:48:24.257Z,43.40
2017-06-23T15:50:52.567Z,44.00
2017-06-23T15:53:20.827Z,44.10
2017-06-23T15:55:49.094Z,43.20
2017-06-23T15:58:17.384Z,43.60
2017-06-23T16:00:45.693Z,43.80
2017-06-23T16:03:13.971Z,43.70
2017-06-23T16:05:42.248Z,43.80
2017-06-23T16:08:10.538Z,43.70
2017-06-23T16:10:38.806Z,44.30
2017-06-23T16:13:07.125Z,45.40
2017-06-23T16:15:35.399Z,44.00
2017-06-23T16:18:02.899Z,44.00
2017-06-23T16:20:31.184Z,45.10
2017-06-23T16:22:59.443Z,44.10
2017-06-23T16:25:27.748Z,44.50
2017-06-23T16:27:56.006Z,44.60
2017-06-23T16:30:24.282Z,44.00
2017-06-23T16:32:52.669Z,43.80
2017-06-23T16:35:20.934Z,43.80
2017-06-23T16:37:49.196Z,43.90
2017-06-23T16:40:16.729Z,43.90
2017-06-23T16:42:45.002Z,43.60
2017-06-23T16:45:13.296Z,43.40
2017-06-23T16:47:41.576Z,43.00
2017-06-23T16:50:09.892Z,43.90
2017-06-23T16:52:38.156Z,42.70
2017-06-23T16:55:05.721Z,42.70
2017-06-23T16:57:33.988Z,43.70
2017-06-23T17:00:03.284Z,43.40
2017-06-23T17:02:31.563Z,43.00
2017-06-23T17:04:59.836Z,42.30
2017-06-23T17:07:28.123Z,43.20
2017-06-23T17:09:56.393Z,42.30
2017-06-23T17:12:24.701Z,42.50
2017-06-23T17:14:53.038Z,43.60
2017-06-23T17:17:21.369Z,42.60
2017-06-23T17:19:50.734Z,42.90
2017-06-23T17:22:18.995Z,43.70
2017-06-23T17:24:47.302Z,43.30
2017-06-23T17:27:15.574Z,43.20
2017-06-23T17:29:43.884Z,43.90
2017-06-23T17:32:12.177Z,43.40
2017-06-23T17:34:40.490Z,43.40
2017-06-23T17:37:09.759Z,42.90
2017-06-23T17:39:38.035Z,44.10
2017-06-23T17:42:06.339Z,43.20
2017-06-23T17:44:34.617Z,42.90
2017-06-23T17:47:02.924Z,43.50
2017-06-23T17:49:31.229Z,42.90
2017-06-23T17:51:59.508Z,44.10
2017-06-23T17:54:27.805Z,44.20
2017-06-23T17:56:56.068Z,43.90
2017-06-23T17:59:24.365Z,43.70
2017-06-23T18:01:52.650Z,43.60
2017-06-23T18:04:21.027Z,43.90
2017-06-23T18:06:49.305Z,45.30
2017-06-23T18:09:17.573Z,45.40
2017-06-23T18:11:45.872Z,44.60
2017-06-23T18:14:14.141Z,44.90
2017-06-23T18:16:42.468Z,44.90
2017-06-23T18:19:09.970Z,44.90
2017-06-23T18:21:38.235Z,44.60
2017-06-23T18:24:06.545Z,45.20
2017-06-23T18:26:34.841Z,45.00
2017-06-23T18:29:03.107Z,44.90
2017-06-23T18:31:31.410Z,44.90
2017-06-23T18:33:59.689Z,44.80
2017-06-23T18:36:27.961Z,44.50
2017-06-23T18:38:56.263Z,45.80
2017-06-23T18:41:24.536Z,47.90
2017-06-23T18:43:52.841Z,46.70
2017-06-23T18:46:21.114Z,48.10
2017-06-23T18:48:49.379Z,46.60
2017-06-23T18:51:17.689Z,47.10
2017-06-23T18:53:45.992Z,48.00
2017-06-23T18:56:14.259Z,48.10
2017-06-23T18:58:42.550Z,47.70
2017-06-23T19:01:10.872Z,47.90
2017-06-23T19:03:39.140Z,47.90
2017-06-23T19:06:07.406Z,47.80
2017-06-23T19:08:35.700Z,47.30
2017-06-23T19:11:03.976Z,47.80
2017-06-23T19:13:32.276Z,48.60
2017-06-23T19:16:00.542Z,48.40
2017-06-23T19:18:28.846Z,47.30
2017-06-23T19:20:57.169Z,48.50
2017-06-23T19:23:25.439Z,47.30
2017-06-23T19:25:53.721Z,47.30
2017-06-23T19:28:22.020Z,50.80
2017-06-23T19:30:50.279Z,53.60
2017-06-23T19:33:19.571Z,54.30
2017-06-23T19:35:47.840Z,55.10
2017-06-23T19:38:16.130Z,55.30
2017-06-23T19:40:44.418Z,56.00
2017-06-23T19:43:12.724Z,56.10
2017-06-23T19:45:40.997Z,56.40
2017-06-23T19:48:09.268Z,56.80
2017-06-23T19:50:37.575Z,57.00
2017-06-23T19:53:05.863Z,57.40
2017-06-23T19:55:34.173Z,57.60
2017-06-23T19:58:02.455Z,57.30
2017-06-23T20:00:30.756Z,57.50
2017-06-23T20:02:59.026Z,57.50
2017-06-23T20:05:27.288Z,57.70
2017-06-23T20:07:55.592Z,57.50
2017-06-23T20:10:23.864Z,57.60
2017-06-23T20:12:52.160Z,57.80
2017-06-23T20:15:20.464Z,58.10
2017-06-23T20:17:48.740Z,57.80
2017-06-23T20:20:17.045Z,58.20
2017-06-23T20:22:45.325Z,58.60
2017-06-23T20:25:13.645Z,58.90
2017-06-23T20:27:41.925Z,58.90
2017-06-23T20:30:10.190Z,59.10
2017-06-23T20:32:38.481Z,59.00
2017-06-23T20:35:06.751Z,59.00
2017-06-23T20:37:35.050Z,59.40
2017-06-23T20:40:03.333Z,59.40
2017-06-23T20:42:31.650Z,59.60
2017-06-23T20:44:59.923Z,59.70
2017-06-23T20:47:28.198Z,60.10
2017-06-23T20:49:56.521Z,59.40
2017-06-23T20:52:24.792Z,59.00
2017-06-23T20:54:53.164Z,59.60
2017-06-23T20:57:21.478Z,59.40
2017-06-23T20:59:49.784Z,59.50
2017-06-23T21:02:18.068Z,59.70
2017-06-23T21:04:46.374Z,59.60
2017-06-23T21:07:14.658Z,60.20
2017-06-23T21:09:42.966Z,60.60
2017-06-23T21:12:11.242Z,60.80
2017-06-23T21:14:39.561Z,61.00
2017-06-23T21:17:07.842Z,60.40
2017-06-23T21:19:36.121Z,60.80
2017-06-23T21:22:04.417Z,60.60
2017-06-23T21:24:32.683Z,61.40
2017-06-23T21:27:00.984Z,61.20
2017-06-23T21:29:29.256Z,60.90
2017-06-23T21:31:57.554Z,60.70
2017-06-23T21:34:25.817Z,60.60
2017-06-23T21:36:54.080Z,60.60
2017-06-23T21:39:22.391Z,60.90
2017-06-23T21:41:53.405Z,60.40
2017-06-23T21:44:21.720Z,60.50
2017-06-23T21:46:49.988Z,61.00
2017-06-23T21:49:18.292Z,60.60
2017-06-23T21:51:46.564Z,60.50
2017-06-23T21:54:14.876Z,61.00
2017-06-23T21:56:43.159Z,61.50
2017-06-23T21:59:11.434Z,61.30
2017-06-23T22:01:39.732Z,60.90
2017-06-23T22:04:08.032Z,60.60
2017-06-23T22:06:36.328Z,60.00
2017-06-23T22:09:04.597Z,58.50
2017-06-23T22:11:32.893Z,58.70
2017-06-23T22:14:01.160Z,58.20
2017-06-23T22:16:29.446Z,57.40
2017-06-23T22:18:57.720Z,58.20
2017-06-23T22:21:26.019Z,58.30
2017-06-23T22:23:54.280Z,56.40
2017-06-23T22:26:22.544Z,57.10
2017-06-23T22:28:50.828Z,57.40
2017-06-23T22:31:19.093Z,57.40
2017-06-23T22:33:47.392Z,56.10
2017-06-23T22:36:15.649Z,56.20
2017-06-23T22:38:43.961Z,56.30
2017-06-23T22:41:12.231Z,56.30
2017-06-23T22:43:40.492Z,56.00
2017-06-23T22:46:08.782Z,57.50
2017-06-23T22:48:37.042Z,57.00
2017-06-23T22:51:05.338Z,56.30
2017-06-23T22:53:33.601Z,57.20
2017-06-23T22:56:01.891Z,57.90
2017-06-23T22:58:30.156Z,55.30
2017-06-23T23:00:58.464Z,57.60
2017-06-23T23:03:26.726Z,56.90
2017-06-23T23:05:54.990Z,57.40
2017-06-23T23:08:23.287Z,57.00
2017-06-23T23:10:50.820Z,57.00
2017-06-23T23:13:19.105Z,56.50
2017-06-23T23:15:47.392Z,56.20
2017-06-23T23:18:15.708Z,57.80
2017-06-23T23:20:43.975Z,56.50
2017-06-23T23:23:12.271Z,56.50
2017-06-23T23:25:40.542Z,56.70
2017-06-23T23:28:08.841Z,57.70
2017-06-23T23:30:37.103Z,58.80
2017-06-23T23:33:05.400Z,57.80
2017-06-23T23:35:33.660Z,58.70
2017-06-23T23:38:01.921Z,59.10
2017-06-23T23:40:30.213Z,57.90
2017-06-23T23:42:58.479Z,58.00
2017-06-23T23:45:26.784Z,58.70
2017-06-23T23:47:55.048Z,57.90
2017-06-23T23:50:23.315Z,58.00
2017-06-23T23:52:51.624Z,59.50
2017-06-23T23:55:19.885Z,57.80
2017-06-23T23:57:48.151Z,58.00
